Terminal Aerodrome Forecast
Issued by NWS

Home | Current Version | Previous Version | Text Only | Print | Product List | Glossary On
Versions: 1 2 3 4 5 6 7 8 9 10 11 12 13 14 15 16 17 18
000
FTUS43 KIND 272100 AAA
TAFBMG
TAF AMD
KBMG 272111Z 2721/2818 01006KT P6SM BKN015 OVC050
     FM272300 03005KT P6SM SCT050
     FM280300 VRB02KT P6SM SCT250
     FM281500 15007KT P6SM FEW080 SCT250=

USA.gov is the U.S. government's official web portal to all federal, state and local government web resources and services.